Monday, February 19, 2018, 9:58 AM GMT
Back to Local

CWST, La Pocatiere

Location: , , Canada Lat: 47.35
Local Time: 9:58 AM GMT ( 9:58 GMT) Lon: -70.033
Time Zone: GMT Elev: 101 ft

Show me the last for .
Show Decoded

2018-02-19 09:00 METAR CWST 190900Z AUTO 15009KT M04/M09 RMK AO1 SOG 22 6005 SLP279 T10391089 =
2018-02-19 08:00 METAR CWST 190800Z AUTO 20009KT M02/M07 RMK AO1 SOG 22 7007 SLP279 T10191072 =
2018-02-19 07:00 METAR CWST 190700Z AUTO 12007KT M06/M10 RMK AO1 SOG 22 8002 SLP281 T10601095 =
2018-02-19 06:00 METAR CWST 190600Z AUTO 20006KT M04/M09 RMK AO1 SOG 21 0009 SLP284 T10411087 =
2018-02-19 05:00 METAR CWST 190500Z AUTO 21007KT M03/M08 RMK AO1 SOG 21 3012 SLP286 T10311078 =
2018-02-19 04:00 METAR CWST 190400Z AUTO 21009KT M03/M08 RMK AO1 SOG 21 3013 SLP283 T10301080 =
2018-02-19 03:00 METAR CWST 190300Z AUTO 20010KT M03/M09 RMK AO1 SOG 22 1015 SLP275 T10321089 =
2018-02-19 02:00 METAR CWST 190200Z AUTO 23004KT M07/M11 RMK AO1 SOG 21 1021 SLP274 T10711106 =
2018-02-19 01:00 METAR CWST 190100Z AUTO 22008KT M07/M10 RMK AO1 SOG 21 1038 SLP270 T10671102 =
2018-02-19 00:00 METAR CWST 190000Z AUTO 22008KT M06/M09 RMK AO1 SOG 21 1046 SLP260 T10561089 =
2018-02-18 23:00 METAR CWST 182300Z AUTO 22011G16KT M02/M06 RMK AO1 PRESRR SOG 22 3044 SLP253
                 T10221060 =
2018-02-18 22:00 METAR CWST 182200Z AUTO 22014KT M02/M06 RMK AO1 SOG 21 3036 PK WND 22018/2106
                 SLP232 T10201055 =
2018-02-18 21:00 METAR CWST 182100Z AUTO 23014KT M02/M06 RMK AO1 SOG 21 1024 PK WND 22022/2010
                 SLP213 T10161056 =
2018-02-18 20:00 METAR CWST 182000Z AUTO 22017KT M01/M06 RMK AO1 SOG 22 3028 PK WND 22021/1956
                 SLP208 T10071059 =
2018-02-18 19:00 METAR CWST 181900Z AUTO 22015G20KT M01/M06 RMK AO1 SOG 22 3014 PK WND 22023/1824
                 SLP195 T10121062 =
2018-02-18 18:00 METAR CWST 181800Z AUTO 23014G19KT M01/M07 RMK AO1 SOG 22 1018 PK WND 23019/1759
                 SLP189 T10131068 =
2018-02-18 17:00 METAR CWST 181700Z AUTO 24009KT M01/M06 RMK AO1 SOG 22 0018 SLP180 T10121060 =
2018-02-18 16:00 METAR CWST 181600Z AUTO 22014KT M03/M06 RMK AO1 SOG 22 3025 PK WND 23022/1536
                 SLP181 T10271060 =
2018-02-18 15:00 METAR CWST 181500Z AUTO 22016KT M03/M06 RMK AO1 SOG 22 3021 PK WND 21018/1453
                 SLP171 T10271058 =
2018-02-18 14:00 METAR CWST 181400Z AUTO 23013KT M03/M06 RMK AO1 SOG 22 3017 PK WND 23017/1358
                 SLP162 T10321061 =
2018-02-18 13:00 METAR CWST 181300Z AUTO 23007KT M04/M06 RMK AO1 SOG 22 3013 SLP156 T10371055 =
2018-02-18 12:00 METAR CWST 181200Z AUTO 21004KT M04/M07 RMK AO1 SOG 22 3007 SLP151 T10421066 =
2018-02-18 11:00 METAR CWST 181100Z AUTO 15005KT M05/M08 RMK AO1 SOG 22 1005 SLP145 T10471081 =
2018-02-18 10:00 METAR CWST 181000Z AUTO 16007KT M05/M09 RMK AO1 SOG 22 1003 SLP143 T10471088 =

Support USWX by starting your Amazon purchase here.